createdAt,value
2019-05-19T00:00:05.179Z,8
2019-05-19T00:01:01.968Z,8
2019-05-19T00:02:02.334Z,8
2019-05-19T00:03:01.495Z,8
2019-05-19T00:04:01.602Z,7
2019-05-19T00:05:02.574Z,8
2019-05-19T00:06:01.646Z,8
2019-05-19T00:07:01.900Z,8
2019-05-19T00:08:02.303Z,8
2019-05-19T00:09:02.377Z,8
2019-05-19T00:10:01.757Z,10
2019-05-19T00:11:01.856Z,8
2019-05-19T00:12:02.072Z,8
2019-05-19T00:13:02.017Z,8
2019-05-19T00:14:02.283Z,8
2019-05-19T00:15:02.465Z,8
2019-05-19T00:16:02.295Z,9
2019-05-19T00:17:01.562Z,10
2019-05-19T00:18:01.751Z,10
2019-05-19T00:19:02.020Z,10
2019-05-19T00:20:02.217Z,10
2019-05-19T00:21:06.034Z,10
2019-05-19T00:22:01.720Z,9
2019-05-19T00:23:02.002Z,10
2019-05-19T00:24:02.200Z,10
2019-05-19T00:25:02.396Z,10
2019-05-19T00:26:01.678Z,10
2019-05-19T00:27:01.577Z,10
2019-05-19T00:28:01.875Z,9
2019-05-19T00:29:02.130Z,8
2019-05-19T00:30:02.350Z,8
2019-05-19T00:31:01.605Z,8
2019-05-19T00:32:01.843Z,8
2019-05-19T00:33:02.046Z,8
2019-05-19T00:34:02.344Z,9
2019-05-19T00:35:01.573Z,8
2019-05-19T00:36:01.682Z,8
2019-05-19T00:37:01.947Z,8
2019-05-19T00:38:02.177Z,8
2019-05-19T00:39:02.379Z,8
2019-05-19T00:40:01.627Z,10
2019-05-19T00:41:01.868Z,8
2019-05-19T00:42:02.177Z,8
2019-05-19T00:43:01.915Z,8
2019-05-19T00:44:02.199Z,8
2019-05-19T00:45:02.402Z,8
2019-05-19T00:46:01.589Z,11
2019-05-19T00:47:01.586Z,10
2019-05-19T00:48:01.718Z,10
2019-05-19T00:49:01.984Z,10
2019-05-19T00:50:02.320Z,10
2019-05-19T00:51:01.438Z,10
2019-05-19T00:52:01.451Z,9
2019-05-19T00:53:01.644Z,10
2019-05-19T00:54:01.819Z,10
2019-05-19T00:55:02.069Z,10
2019-05-19T00:56:02.264Z,10
2019-05-19T00:57:01.509Z,10
2019-05-19T00:58:01.787Z,9
2019-05-19T00:59:06.618Z,8
2019-05-19T01:00:04.467Z,8
2019-05-19T01:01:02.207Z,8
2019-05-19T01:02:01.516Z,8
2019-05-19T01:03:01.706Z,8
2019-05-19T01:04:01.854Z,11
2019-05-19T01:05:02.020Z,10
2019-05-19T01:06:01.980Z,10
2019-05-19T01:07:02.205Z,10
2019-05-19T01:08:01.447Z,10
2019-05-19T01:09:01.679Z,10
2019-05-19T01:10:02.335Z,7
2019-05-19T01:11:01.463Z,9
2019-05-19T01:12:01.692Z,9
2019-05-19T01:13:01.901Z,9
2019-05-19T01:14:02.167Z,9
2019-05-19T01:15:02.425Z,9
2019-05-19T01:16:02.239Z,10
2019-05-19T01:17:01.552Z,8
2019-05-19T01:18:01.671Z,8
2019-05-19T01:19:01.979Z,8
2019-05-19T01:20:02.248Z,8
2019-05-19T01:21:02.389Z,8
2019-05-19T01:22:01.629Z,9
2019-05-19T01:23:01.807Z,10
2019-05-19T01:24:02.138Z,10
2019-05-19T01:25:02.302Z,10
2019-05-19T01:26:01.504Z,10
2019-05-19T01:27:01.739Z,10
2019-05-19T01:28:01.953Z,7
2019-05-19T01:29:02.209Z,10
2019-05-19T01:30:02.355Z,10
2019-05-19T01:31:01.562Z,10
2019-05-19T01:32:01.784Z,10
2019-05-19T01:33:02.017Z,10
2019-05-19T01:34:01.790Z,9
2019-05-19T01:35:01.985Z,10
2019-05-19T01:36:02.167Z,10
2019-05-19T01:37:02.438Z,10
2019-05-19T01:38:01.545Z,10
2019-05-19T01:39:01.591Z,10
2019-05-19T01:40:01.851Z,9
2019-05-19T01:41:02.021Z,8
2019-05-19T01:42:02.328Z,8
2019-05-19T01:43:01.442Z,8
2019-05-19T01:44:01.664Z,8
2019-05-19T01:45:01.906Z,8
2019-05-19T01:46:02.193Z,10
2019-05-19T01:47:02.344Z,9
2019-05-19T01:48:01.664Z,9
2019-05-19T01:49:01.749Z,9
2019-05-19T01:50:16.962Z,9
2019-05-19T01:51:02.328Z,9
2019-05-19T01:52:01.549Z,9
2019-05-19T01:53:01.848Z,8
2019-05-19T01:54:01.929Z,8
2019-05-19T01:55:02.184Z,8
2019-05-19T01:56:02.449Z,8
2019-05-19T01:57:01.603Z,8
2019-05-19T01:58:01.553Z,7
2019-05-19T01:59:01.759Z,10
2019-05-19T02:00:03.566Z,10
2019-05-19T02:01:02.157Z,10
2019-05-19T02:02:02.400Z,10
2019-05-19T02:03:01.671Z,10
2019-05-19T02:04:01.857Z,5
2019-05-19T02:05:02.219Z,10
2019-05-19T02:06:02.360Z,10
2019-05-19T02:07:01.636Z,10
2019-05-19T02:08:01.877Z,10
2019-05-19T02:09:02.137Z,10
2019-05-19T02:10:02.642Z,10
2019-05-19T02:11:01.605Z,10
2019-05-19T02:12:01.828Z,10
2019-05-19T02:13:05.023Z,10
2019-05-19T02:14:02.324Z,10
2019-05-19T02:15:01.661Z,10
2019-05-19T02:16:01.830Z,10
2019-05-19T02:17:02.133Z,7
2019-05-19T02:18:02.331Z,7
2019-05-19T02:19:01.536Z,7
2019-05-19T02:20:01.903Z,7
2019-05-19T02:21:02.011Z,7
2019-05-19T02:22:02.310Z,7
2019-05-19T02:23:02.299Z,10
2019-05-19T02:24:01.513Z,10
2019-05-19T02:25:01.701Z,10
2019-05-19T02:26:01.930Z,10
2019-05-19T02:27:02.112Z,10
2019-05-19T02:28:02.475Z,10
2019-05-19T02:29:01.643Z,10
2019-05-19T02:30:02.666Z,10
2019-05-19T02:31:02.364Z,10
2019-05-19T02:32:01.536Z,10
2019-05-19T02:33:01.742Z,10
2019-05-19T02:34:01.932Z,10
2019-05-19T02:35:02.125Z,7
2019-05-19T02:36:02.348Z,7
2019-05-19T02:37:01.625Z,7
2019-05-19T02:38:01.734Z,7
2019-05-19T02:39:01.967Z,7
2019-05-19T02:40:02.405Z,9
2019-05-19T02:41:01.641Z,10
2019-05-19T02:42:01.799Z,10
2019-05-19T02:43:02.080Z,10
2019-05-19T02:44:02.281Z,10
2019-05-19T02:45:01.570Z,10
2019-05-19T02:46:01.902Z,10
2019-05-19T02:47:02.119Z,10
2019-05-19T02:48:02.277Z,10
2019-05-19T02:49:01.526Z,10
2019-05-19T02:50:01.882Z,10
2019-05-19T02:51:02.045Z,10
2019-05-19T02:52:02.180Z,10
2019-05-19T02:53:02.407Z,11
2019-05-19T02:54:01.667Z,11
2019-05-19T02:55:01.961Z,11
2019-05-19T02:56:01.463Z,11
2019-05-19T02:57:01.716Z,11
2019-05-19T02:58:01.865Z,10
2019-05-19T02:59:02.127Z,10
2019-05-19T03:00:02.371Z,10
2019-05-19T03:01:01.617Z,10
2019-05-19T03:02:01.777Z,10
2019-05-19T03:03:02.075Z,10
2019-05-19T03:04:02.168Z,7
2019-05-19T03:05:02.413Z,8
2019-05-19T03:06:01.685Z,8
2019-05-19T03:07:01.884Z,8
2019-05-19T03:08:01.916Z,8
2019-05-19T03:09:02.103Z,8
2019-05-19T03:10:02.175Z,9
2019-05-19T03:11:02.398Z,9
2019-05-19T03:12:01.529Z,9
2019-05-19T03:13:01.723Z,9
2019-05-19T03:14:01.914Z,9
2019-05-19T03:15:02.268Z,9
2019-05-19T03:16:02.384Z,9
2019-05-19T03:17:01.655Z,9
2019-05-19T03:18:01.917Z,9
2019-05-19T03:19:02.090Z,9
2019-05-19T03:20:02.465Z,9
2019-05-19T03:21:11.145Z,9
2019-05-19T03:22:01.754Z,10
2019-05-19T03:23:01.986Z,9
2019-05-19T03:24:02.220Z,9
2019-05-19T03:25:01.580Z,9
2019-05-19T03:26:01.763Z,9
2019-05-19T03:27:01.962Z,9
2019-05-19T03:28:02.270Z,7
2019-05-19T03:29:02.396Z,9
2019-05-19T03:30:01.895Z,9
2019-05-19T03:31:01.994Z,9
2019-05-19T03:32:02.326Z,9
2019-05-19T03:33:02.179Z,9
2019-05-19T03:34:01.426Z,10
2019-05-19T03:35:01.736Z,9
2019-05-19T03:36:01.881Z,9
2019-05-19T03:37:01.904Z,9
2019-05-19T03:38:02.119Z,9
2019-05-19T03:39:02.351Z,9
2019-05-19T03:40:01.729Z,9
2019-05-19T03:41:01.836Z,9
2019-05-19T03:42:01.664Z,9
2019-05-19T03:43:01.869Z,9
2019-05-19T03:44:02.023Z,9
2019-05-19T03:45:02.252Z,9
2019-05-19T03:46:01.492Z,9
2019-05-19T03:47:01.724Z,11
2019-05-19T03:48:01.887Z,11
2019-05-19T03:49:02.118Z,11
2019-05-19T03:50:02.398Z,11
2019-05-19T03:51:01.551Z,11
2019-05-19T03:52:01.786Z,7
2019-05-19T03:53:01.706Z,9
2019-05-19T03:54:02.078Z,9
2019-05-19T03:55:02.203Z,9
2019-05-19T03:56:02.362Z,9
2019-05-19T03:57:01.607Z,9
2019-05-19T03:58:01.816Z,7
2019-05-19T03:59:02.170Z,9
2019-05-19T04:00:04.271Z,9
2019-05-19T04:01:02.156Z,9
2019-05-19T04:02:02.272Z,9
2019-05-19T04:03:01.607Z,9
2019-05-19T04:04:01.767Z,7
2019-05-19T04:05:02.059Z,7
2019-05-19T04:06:02.225Z,7
2019-05-19T04:07:01.404Z,7
2019-05-19T04:08:01.609Z,7
2019-05-19T04:09:01.817Z,7
2019-05-19T04:10:02.077Z,7
2019-05-19T04:11:02.293Z,7
2019-05-19T04:12:01.479Z,7
2019-05-19T04:13:01.779Z,7
2019-05-19T04:14:01.881Z,7
2019-05-19T04:15:02.193Z,7
2019-05-19T04:16:02.343Z,7
2019-05-19T04:17:01.438Z,9
2019-05-19T04:18:01.718Z,9
2019-05-19T04:19:01.636Z,9
2019-05-19T04:20:01.952Z,9
2019-05-19T04:21:02.189Z,9
2019-05-19T04:22:02.294Z,6
2019-05-19T04:23:01.628Z,9
2019-05-19T04:24:01.769Z,9
2019-05-19T04:25:02.132Z,9
2019-05-19T04:26:02.274Z,9
2019-05-19T04:27:01.466Z,9
2019-05-19T04:28:01.727Z,7
2019-05-19T04:29:01.952Z,9
2019-05-19T04:30:02.191Z,9
2019-05-19T04:31:01.476Z,9
2019-05-19T04:32:01.689Z,9
2019-05-19T04:33:01.890Z,9
2019-05-19T04:34:02.144Z,9
2019-05-19T04:35:01.530Z,9
2019-05-19T04:36:01.761Z,9
2019-05-19T04:37:02.064Z,9
2019-05-19T04:38:02.255Z,9
2019-05-19T04:39:01.445Z,9
2019-05-19T04:40:01.712Z,7
2019-05-19T04:41:01.913Z,10
2019-05-19T04:42:02.195Z,10
2019-05-19T04:43:02.345Z,10
2019-05-19T04:44:01.519Z,10
2019-05-19T04:45:01.809Z,10
2019-05-19T04:46:02.061Z,9
2019-05-19T04:47:02.346Z,7
2019-05-19T04:48:01.604Z,7
2019-05-19T04:49:01.926Z,7
2019-05-19T04:50:02.204Z,7
2019-05-19T04:51:01.460Z,7
2019-05-19T04:52:06.434Z,6
2019-05-19T04:53:02.326Z,9
2019-05-19T04:54:01.643Z,9
2019-05-19T04:55:01.851Z,9
2019-05-19T04:56:02.033Z,9
2019-05-19T04:57:02.291Z,9
2019-05-19T04:58:01.462Z,6
2019-05-19T04:59:01.856Z,9
2019-05-19T05:00:05.118Z,9
2019-05-19T05:01:01.918Z,9
2019-05-19T05:02:02.121Z,9
2019-05-19T05:03:02.380Z,9
2019-05-19T05:04:01.657Z,6
2019-05-19T05:05:02.008Z,9
2019-05-19T05:06:02.192Z,9
2019-05-19T05:07:02.366Z,9
2019-05-19T05:08:01.665Z,9
2019-05-19T05:09:01.872Z,9
2019-05-19T05:10:02.197Z,9
2019-05-19T05:11:02.436Z,7
2019-05-19T05:12:01.612Z,7
2019-05-19T05:13:01.810Z,7
2019-05-19T05:14:01.991Z,7
2019-05-19T05:15:02.336Z,7
2019-05-19T05:16:02.116Z,9
2019-05-19T05:17:02.208Z,7
2019-05-19T05:18:01.507Z,7
2019-05-19T05:19:02.415Z,7
2019-05-19T05:20:01.573Z,7
2019-05-19T05:21:01.830Z,7
2019-05-19T05:22:02.051Z,6
2019-05-19T05:23:02.260Z,10
2019-05-19T05:24:01.479Z,10
2019-05-19T05:25:01.517Z,10
2019-05-19T05:26:01.698Z,10
2019-05-19T05:27:01.907Z,10
2019-05-19T05:28:02.086Z,6
2019-05-19T05:29:02.253Z,7
2019-05-19T05:30:02.492Z,7
2019-05-19T05:31:01.603Z,7
2019-05-19T05:32:05.387Z,7
2019-05-19T05:33:02.025Z,7
2019-05-19T05:34:02.199Z,10
2019-05-19T05:35:01.547Z,9
2019-05-19T05:36:01.761Z,9
2019-05-19T05:37:01.975Z,9
2019-05-19T05:38:02.134Z,9
2019-05-19T05:39:02.272Z,9
2019-05-19T05:40:01.592Z,6
2019-05-19T05:41:01.867Z,7
2019-05-19T05:42:02.087Z,7
2019-05-19T05:43:01.816Z,7
2019-05-19T05:44:01.935Z,7
2019-05-19T05:45:02.186Z,7
2019-05-19T05:46:01.553Z,6
2019-05-19T05:47:01.687Z,9
2019-05-19T05:48:01.924Z,9
2019-05-19T05:49:02.086Z,9
2019-05-19T05:50:02.316Z,9
2019-05-19T05:51:01.584Z,9
2019-05-19T05:52:01.778Z,9
2019-05-19T05:53:01.995Z,10
2019-05-19T05:54:02.158Z,10
2019-05-19T05:55:02.435Z,10
2019-05-19T05:56:02.463Z,10
2019-05-19T05:57:01.621Z,10
2019-05-19T05:58:01.807Z,7
2019-05-19T05:59:01.975Z,7
2019-05-19T06:00:03.835Z,7
2019-05-19T06:01:01.686Z,7
2019-05-19T06:02:01.879Z,7
2019-05-19T06:03:02.253Z,7
2019-05-19T06:04:02.360Z,10
2019-05-19T06:05:02.377Z,9
2019-05-19T06:06:01.591Z,9
2019-05-19T06:07:01.842Z,9
2019-05-19T06:08:02.138Z,9
2019-05-19T06:09:02.316Z,9
2019-05-19T06:10:01.583Z,7
2019-05-19T06:11:01.820Z,9
2019-05-19T06:12:02.090Z,9
2019-05-19T06:13:02.363Z,9
2019-05-19T06:14:01.454Z,9
2019-05-19T06:15:01.756Z,9
2019-05-19T06:16:01.998Z,6
2019-05-19T06:17:02.335Z,7
2019-05-19T06:18:01.578Z,7
2019-05-19T06:19:01.830Z,7
2019-05-19T06:20:02.997Z,7
2019-05-19T06:21:01.649Z,7
2019-05-19T06:22:01.846Z,9
2019-05-19T06:23:01.622Z,7
2019-05-19T06:24:01.864Z,7
2019-05-19T06:25:02.189Z,7
2019-05-19T06:26:02.397Z,7
2019-05-19T06:27:01.603Z,7
2019-05-19T06:28:01.835Z,9
2019-05-19T06:29:02.047Z,9
2019-05-19T06:30:02.287Z,9
2019-05-19T06:31:01.489Z,9
2019-05-19T06:32:01.712Z,9
2019-05-19T06:33:01.898Z,9
2019-05-19T06:34:02.176Z,9
2019-05-19T06:35:02.655Z,9
2019-05-19T06:36:02.324Z,9
2019-05-19T06:37:01.574Z,9
2019-05-19T06:38:01.773Z,9
2019-05-19T06:39:01.975Z,9
2019-05-19T06:40:02.223Z,5
2019-05-19T06:41:01.473Z,10
2019-05-19T06:42:01.700Z,10
2019-05-19T06:43:01.958Z,10
2019-05-19T06:44:03.466Z,10
2019-05-19T06:45:01.548Z,10
2019-05-19T06:46:02.408Z,10
2019-05-19T06:47:01.638Z,8
2019-05-19T06:48:01.790Z,8
2019-05-19T06:49:02.084Z,8
2019-05-19T06:50:02.372Z,8
2019-05-19T06:51:01.536Z,8
2019-05-19T06:52:01.697Z,7
2019-05-19T06:53:13.512Z,10
2019-05-19T06:54:02.206Z,10
2019-05-19T06:55:01.474Z,10
2019-05-19T06:56:01.680Z,10
2019-05-19T06:57:01.543Z,10
2019-05-19T06:58:01.789Z,9
2019-05-19T06:59:02.178Z,9
2019-05-19T07:00:04.543Z,9
2019-05-19T07:01:02.386Z,9
2019-05-19T07:02:01.585Z,9
2019-05-19T07:03:01.818Z,9
2019-05-19T07:04:02.131Z,7
2019-05-19T07:05:02.333Z,7
2019-05-19T07:06:01.486Z,7
2019-05-19T07:07:01.851Z,7
2019-05-19T07:08:01.916Z,7
2019-05-19T07:09:02.111Z,7
2019-05-19T07:10:02.162Z,9
2019-05-19T07:11:02.235Z,9
2019-05-19T07:12:01.428Z,9
2019-05-19T07:13:01.698Z,9
2019-05-19T07:14:03.025Z,9
2019-05-19T07:15:02.197Z,9
2019-05-19T07:16:02.318Z,7
2019-05-19T07:17:01.576Z,9
2019-05-19T07:18:01.671Z,9
2019-05-19T07:19:01.560Z,9
2019-05-19T07:20:01.818Z,9
2019-05-19T07:21:01.946Z,9
2019-05-19T07:22:02.203Z,7
2019-05-19T07:23:02.290Z,9
2019-05-19T07:24:01.562Z,9
2019-05-19T07:25:01.770Z,9
2019-05-19T07:26:01.964Z,9
2019-05-19T07:27:02.301Z,9
2019-05-19T07:28:01.406Z,9
2019-05-19T07:29:01.780Z,7
2019-05-19T07:30:02.152Z,7
2019-05-19T07:31:01.424Z,7
2019-05-19T07:32:01.609Z,7
2019-05-19T07:33:01.817Z,7
2019-05-19T07:34:02.081Z,7
2019-05-19T07:35:02.243Z,9
2019-05-19T07:36:01.401Z,9
2019-05-19T07:37:01.552Z,9
2019-05-19T07:38:01.730Z,9
2019-05-19T07:39:01.970Z,9
2019-05-19T07:40:02.350Z,9
2019-05-19T07:41:02.210Z,7
2019-05-19T07:42:02.355Z,7
2019-05-19T07:43:01.557Z,7
2019-05-19T07:44:01.719Z,7
2019-05-19T07:45:02.088Z,7
2019-05-19T07:46:02.250Z,9
2019-05-19T07:47:01.427Z,7
2019-05-19T07:48:01.667Z,7
2019-05-19T07:49:01.835Z,7
2019-05-19T07:50:02.050Z,7
2019-05-19T07:51:02.438Z,7
2019-05-19T07:52:01.413Z,7
2019-05-19T07:53:01.638Z,7
2019-05-19T07:54:01.890Z,7
2019-05-19T07:55:01.892Z,7
2019-05-19T07:56:02.080Z,7
2019-05-19T07:57:02.253Z,7
2019-05-19T07:58:01.462Z,9
2019-05-19T07:59:01.643Z,8
2019-05-19T08:00:04.162Z,8
2019-05-19T08:01:01.935Z,8
2019-05-19T08:02:02.095Z,8
2019-05-19T08:03:02.281Z,8
2019-05-19T08:04:01.567Z,7
2019-05-19T08:05:01.925Z,7
2019-05-19T08:06:02.291Z,7
2019-05-19T08:07:02.257Z,7
2019-05-19T08:08:01.466Z,7
2019-05-19T08:09:01.670Z,7
2019-05-19T08:10:02.058Z,5
2019-05-19T08:11:02.168Z,8
2019-05-19T08:12:01.945Z,8
2019-05-19T08:13:02.159Z,8
2019-05-19T08:14:02.232Z,8
2019-05-19T08:15:01.571Z,8
2019-05-19T08:16:01.661Z,7
2019-05-19T08:17:01.890Z,7
2019-05-19T08:18:01.669Z,7
2019-05-19T08:19:01.570Z,7
2019-05-19T08:20:01.757Z,7
2019-05-19T08:21:01.950Z,7
2019-05-19T08:22:02.254Z,9
2019-05-19T08:23:02.426Z,7
2019-05-19T08:24:01.700Z,7
2019-05-19T08:25:02.048Z,7
2019-05-19T08:26:02.195Z,7
2019-05-19T08:27:02.405Z,7
2019-05-19T08:28:08.549Z,10
2019-05-19T08:29:01.803Z,10
2019-05-19T08:30:02.069Z,10
2019-05-19T08:31:01.954Z,10
2019-05-19T08:32:02.096Z,10
2019-05-19T08:33:02.327Z,10
2019-05-19T08:34:01.509Z,9
2019-05-19T08:35:04.281Z,10
2019-05-19T08:36:01.829Z,10
2019-05-19T08:37:02.089Z,10
2019-05-19T08:38:01.742Z,10
2019-05-19T08:39:01.939Z,10
2019-05-19T08:40:02.170Z,6
2019-05-19T08:41:02.297Z,9
2019-05-19T08:42:01.473Z,9
2019-05-19T08:43:01.689Z,9
2019-05-19T08:44:01.971Z,9
2019-05-19T08:45:02.156Z,9
2019-05-19T08:46:02.414Z,10
2019-05-19T08:47:01.589Z,7
2019-05-19T08:48:01.827Z,7
2019-05-19T08:49:02.104Z,7
2019-05-19T08:50:02.383Z,7
2019-05-19T08:51:01.583Z,7
2019-05-19T08:52:02.380Z,10
2019-05-19T08:53:01.586Z,7
2019-05-19T08:54:13.880Z,7
2019-05-19T08:55:02.068Z,7
2019-05-19T08:56:02.257Z,7
2019-05-19T08:57:01.476Z,7
2019-05-19T08:58:01.752Z,9
2019-05-19T08:59:02.034Z,8
2019-05-19T09:00:05.074Z,8
2019-05-19T09:01:01.866Z,8
2019-05-19T09:02:02.104Z,8
2019-05-19T09:03:02.917Z,8
2019-05-19T09:04:01.556Z,10
2019-05-19T09:05:02.224Z,10
2019-05-19T09:06:02.405Z,10
2019-05-19T09:07:01.616Z,10
2019-05-19T09:08:01.822Z,10
2019-05-19T09:09:02.068Z,10
2019-05-19T09:10:02.335Z,9
2019-05-19T09:11:01.567Z,10
2019-05-19T09:12:01.725Z,10
2019-05-19T09:13:01.593Z,10
2019-05-19T09:14:01.693Z,10
2019-05-19T09:15:02.018Z,10
2019-05-19T09:16:02.094Z,5
2019-05-19T09:17:02.487Z,11
2019-05-19T09:18:01.699Z,11
2019-05-19T09:19:02.102Z,11
2019-05-19T09:20:02.804Z,11
2019-05-19T09:21:01.465Z,11
2019-05-19T09:22:01.740Z,11
2019-05-19T09:23:01.834Z,10
2019-05-19T09:24:02.037Z,10
2019-05-19T09:25:02.477Z,10
2019-05-19T09:26:01.591Z,10
2019-05-19T09:27:01.875Z,10
2019-05-19T09:28:02.046Z,9
2019-05-19T09:29:01.967Z,10
2019-05-19T09:30:02.243Z,10
2019-05-19T09:31:02.374Z,10
2019-05-19T09:32:01.780Z,10
2019-05-19T09:33:01.897Z,10
2019-05-19T09:34:02.096Z,9
2019-05-19T09:35:02.348Z,10
2019-05-19T09:36:01.451Z,10
2019-05-19T09:37:01.717Z,10
2019-05-19T09:38:01.854Z,10
2019-05-19T09:39:02.160Z,10
2019-05-19T09:40:02.390Z,10
2019-05-19T09:41:01.549Z,10
2019-05-19T09:42:01.796Z,10
2019-05-19T09:43:02.000Z,10
2019-05-19T09:44:02.162Z,10
2019-05-19T09:45:01.468Z,10
2019-05-19T09:46:01.742Z,10
2019-05-19T09:47:01.932Z,10
2019-05-19T09:48:02.102Z,10
2019-05-19T09:49:02.321Z,10
2019-05-19T09:50:02.334Z,10
2019-05-19T09:51:01.604Z,10
2019-05-19T09:52:01.850Z,7
2019-05-19T09:53:02.046Z,7
2019-05-19T09:54:02.213Z,7
2019-05-19T09:55:02.452Z,7
2019-05-19T09:56:01.677Z,7
2019-05-19T09:57:01.954Z,7
2019-05-19T09:58:01.971Z,9
2019-05-19T09:59:02.097Z,10
2019-05-19T10:00:04.000Z,10
2019-05-19T10:01:01.753Z,10
2019-05-19T10:02:01.949Z,10
2019-05-19T10:03:02.176Z,10
2019-05-19T10:04:02.368Z,11
2019-05-19T10:05:01.688Z,10
2019-05-19T10:06:01.921Z,10
2019-05-19T10:07:02.897Z,10
2019-05-19T10:08:02.268Z,10
2019-05-19T10:09:01.485Z,10
2019-05-19T10:10:01.859Z,10
2019-05-19T10:11:02.027Z,11
2019-05-19T10:12:02.128Z,11
2019-05-19T10:13:02.312Z,11
2019-05-19T10:14:01.590Z,11
2019-05-19T10:15:02.733Z,11
2019-05-19T10:16:02.075Z,7
2019-05-19T10:17:02.359Z,10
2019-05-19T10:18:01.597Z,10
2019-05-19T10:19:01.750Z,10
2019-05-19T10:20:02.204Z,10
2019-05-19T10:21:02.263Z,10
2019-05-19T10:22:01.582Z,8
2019-05-19T10:23:01.886Z,10
2019-05-19T10:24:02.184Z,10
2019-05-19T10:25:20.288Z,10
2019-05-19T10:26:01.599Z,10
2019-05-19T10:27:01.567Z,10
2019-05-19T10:28:01.834Z,7
2019-05-19T10:29:02.061Z,10
2019-05-19T10:30:02.372Z,10
2019-05-19T10:31:01.656Z,10
2019-05-19T10:32:01.860Z,10
2019-05-19T10:33:02.098Z,10
2019-05-19T10:34:02.350Z,9
2019-05-19T10:35:01.949Z,10
2019-05-19T10:36:01.835Z,10
2019-05-19T10:37:02.028Z,10
2019-05-19T10:38:02.276Z,10
2019-05-19T10:39:01.471Z,10
2019-05-19T10:40:01.760Z,10
2019-05-19T10:41:01.951Z,10
2019-05-19T10:42:02.659Z,10
2019-05-19T10:43:02.461Z,10
2019-05-19T10:44:01.580Z,10
2019-05-19T10:45:01.786Z,10
2019-05-19T10:46:01.668Z,10
2019-05-19T10:47:01.823Z,10
2019-05-19T10:48:01.927Z,10
2019-05-19T10:49:02.141Z,10
2019-05-19T10:50:02.419Z,10
2019-05-19T10:51:01.652Z,10
2019-05-19T10:52:01.692Z,8
2019-05-19T10:53:02.456Z,10
2019-05-19T10:54:01.795Z,10
2019-05-19T10:55:02.164Z,10
2019-05-19T10:56:02.305Z,10
2019-05-19T10:57:01.629Z,10
2019-05-19T10:58:01.816Z,9
2019-05-19T10:59:02.073Z,10
2019-05-19T11:00:04.376Z,10
2019-05-19T11:01:02.210Z,10
2019-05-19T11:02:01.489Z,10
2019-05-19T11:03:01.803Z,10
2019-05-19T11:04:01.982Z,10
2019-05-19T11:05:02.273Z,9
2019-05-19T11:06:01.617Z,9
2019-05-19T11:07:01.786Z,9
2019-05-19T11:08:02.075Z,9
2019-05-19T11:09:02.192Z,9
2019-05-19T11:10:02.463Z,12
2019-05-19T11:11:01.669Z,11
2019-05-19T11:12:01.824Z,11
2019-05-19T11:13:02.123Z,11
2019-05-19T11:14:02.257Z,11
2019-05-19T11:15:01.569Z,11
2019-05-19T11:16:01.687Z,10
2019-05-19T11:17:02.013Z,12
2019-05-19T11:18:02.135Z,12
2019-05-19T11:19:02.409Z,12
2019-05-19T11:20:02.084Z,12
2019-05-19T11:21:01.863Z,12
2019-05-19T11:22:01.729Z,10
2019-05-19T11:23:01.864Z,12
2019-05-19T11:24:01.841Z,12
2019-05-19T11:25:02.161Z,12
2019-05-19T11:26:02.305Z,12
2019-05-19T11:27:01.575Z,12
2019-05-19T11:28:01.771Z,11
2019-05-19T11:29:02.046Z,12
2019-05-19T11:30:02.220Z,12
2019-05-19T11:31:01.437Z,12
2019-05-19T11:32:01.800Z,12
2019-05-19T11:33:01.938Z,12
2019-05-19T11:34:02.215Z,8
2019-05-19T11:35:02.447Z,8
2019-05-19T11:36:01.689Z,8
2019-05-19T11:37:01.889Z,8
2019-05-19T11:38:02.094Z,8
2019-05-19T11:39:02.343Z,8
2019-05-19T11:40:01.478Z,11
2019-05-19T11:41:01.773Z,11
2019-05-19T11:42:01.438Z,11
2019-05-19T11:43:01.778Z,11
2019-05-19T11:44:01.878Z,11
2019-05-19T11:45:02.171Z,11
2019-05-19T11:46:02.370Z,11
2019-05-19T11:47:01.607Z,12
2019-05-19T11:48:01.866Z,12
2019-05-19T11:49:02.120Z,12
2019-05-19T11:50:02.381Z,12
2019-05-19T11:51:01.641Z,12
2019-05-19T11:52:01.849Z,12
2019-05-19T11:53:02.094Z,11
2019-05-19T11:54:02.394Z,11
2019-05-19T11:55:01.744Z,11
2019-05-19T11:56:06.717Z,11
2019-05-19T11:57:02.206Z,11
2019-05-19T11:58:02.336Z,11
2019-05-19T11:59:01.462Z,11
2019-05-19T12:00:06.264Z,11
2019-05-19T12:01:02.065Z,11
2019-05-19T12:02:02.211Z,11
2019-05-19T12:03:02.350Z,11
2019-05-19T12:04:01.603Z,12
2019-05-19T12:05:02.079Z,12
2019-05-19T12:06:02.196Z,12
2019-05-19T12:07:01.465Z,12
2019-05-19T12:08:01.677Z,12
2019-05-19T12:09:01.949Z,12
2019-05-19T12:10:02.243Z,12
2019-05-19T12:11:01.532Z,11
2019-05-19T12:12:01.768Z,11
2019-05-19T12:13:01.924Z,11
2019-05-19T12:14:02.157Z,11
2019-05-19T12:15:02.451Z,11
2019-05-19T12:16:01.694Z,11
2019-05-19T12:17:01.983Z,11
2019-05-19T12:18:02.020Z,11
2019-05-19T12:19:02.380Z,11
2019-05-19T12:20:01.592Z,11
2019-05-19T12:21:01.780Z,11
2019-05-19T12:22:01.975Z,10
2019-05-19T12:23:02.195Z,12
2019-05-19T12:24:01.394Z,12
2019-05-19T12:25:01.767Z,12
2019-05-19T12:26:01.977Z,12
2019-05-19T12:27:02.127Z,12
2019-05-19T12:28:02.395Z,10
2019-05-19T12:29:01.523Z,10
2019-05-19T12:30:01.850Z,10
2019-05-19T12:31:01.994Z,10
2019-05-19T12:32:02.142Z,10
2019-05-19T12:33:02.067Z,10
2019-05-19T12:34:02.067Z,9
2019-05-19T12:35:02.418Z,11
2019-05-19T12:36:01.590Z,11
2019-05-19T12:37:01.829Z,11
2019-05-19T12:38:02.078Z,11
2019-05-19T12:39:02.392Z,11
2019-05-19T12:40:01.614Z,11
2019-05-19T12:41:01.780Z,11
2019-05-19T12:42:02.023Z,11
2019-05-19T12:43:02.288Z,11
2019-05-19T12:44:01.439Z,11
2019-05-19T12:45:01.685Z,11
2019-05-19T12:46:01.960Z,10
2019-05-19T12:47:02.194Z,9
2019-05-19T12:48:02.223Z,9
2019-05-19T12:49:01.506Z,9
2019-05-19T12:50:02.013Z,9
2019-05-19T12:51:01.979Z,9
2019-05-19T12:52:02.286Z,12
2019-05-19T12:53:02.436Z,12
2019-05-19T12:54:01.739Z,12
2019-05-19T12:55:01.853Z,12
2019-05-19T12:56:02.069Z,12
2019-05-19T12:57:02.268Z,12
2019-05-19T12:58:01.526Z,8
2019-05-19T12:59:01.780Z,10
2019-05-19T13:00:06.103Z,10
2019-05-19T13:01:01.958Z,10
2019-05-19T13:02:02.148Z,10
2019-05-19T13:03:02.471Z,10
2019-05-19T13:04:01.592Z,8
2019-05-19T13:05:05.572Z,12
2019-05-19T13:06:01.985Z,12
2019-05-19T13:07:02.210Z,12
2019-05-19T13:08:01.569Z,12
2019-05-19T13:09:01.713Z,12
2019-05-19T13:10:02.055Z,9
2019-05-19T13:11:02.176Z,10
2019-05-19T13:12:01.448Z,10
2019-05-19T13:13:01.805Z,10
2019-05-19T13:14:01.911Z,10
2019-05-19T13:15:02.182Z,10
2019-05-19T13:16:02.433Z,10
2019-05-19T13:17:01.630Z,10
2019-05-19T13:18:01.889Z,10
2019-05-19T13:19:02.180Z,10
2019-05-19T13:20:02.625Z,10
2019-05-19T13:21:01.650Z,10
2019-05-19T13:22:01.840Z,11
2019-05-19T13:23:02.085Z,13
2019-05-19T13:24:02.370Z,13
2019-05-19T13:25:01.552Z,13
2019-05-19T13:26:01.704Z,13
2019-05-19T13:27:01.871Z,13
2019-05-19T13:28:02.061Z,11
2019-05-19T13:29:01.474Z,11
2019-05-19T13:30:01.659Z,11
2019-05-19T13:31:01.915Z,11
2019-05-19T13:32:02.109Z,11
2019-05-19T13:33:02.334Z,11
2019-05-19T13:34:01.483Z,11
2019-05-19T13:35:01.754Z,11
2019-05-19T13:36:02.038Z,11
2019-05-19T13:37:02.185Z,11
2019-05-19T13:38:02.354Z,11
2019-05-19T13:39:01.534Z,11
2019-05-19T13:40:02.144Z,10
2019-05-19T13:41:02.066Z,11
2019-05-19T13:42:02.342Z,11
2019-05-19T13:43:01.603Z,11
2019-05-19T13:44:01.798Z,11
2019-05-19T13:45:01.981Z,11
2019-05-19T13:46:02.196Z,12
2019-05-19T13:47:01.485Z,10
2019-05-19T13:48:01.715Z,10
2019-05-19T13:49:02.020Z,10
2019-05-19T13:50:02.228Z,10
2019-05-19T13:51:01.570Z,10
2019-05-19T13:52:01.764Z,10
2019-05-19T13:53:02.019Z,11
2019-05-19T13:54:02.283Z,11
2019-05-19T13:55:01.626Z,11
2019-05-19T13:56:01.796Z,11
2019-05-19T13:57:12.001Z,11
2019-05-19T13:58:03.668Z,11
2019-05-19T13:59:01.516Z,12
2019-05-19T14:00:04.419Z,12
2019-05-19T14:01:02.216Z,12
2019-05-19T14:02:01.533Z,12
2019-05-19T14:03:01.737Z,12
2019-05-19T14:04:01.921Z,11
2019-05-19T14:05:02.282Z,12
2019-05-19T14:06:02.376Z,12
2019-05-19T14:07:01.565Z,12
2019-05-19T14:08:01.808Z,12
2019-05-19T14:09:02.256Z,12
2019-05-19T14:10:02.387Z,10
2019-05-19T14:11:01.633Z,10
2019-05-19T14:12:01.769Z,10
2019-05-19T14:13:01.953Z,10
2019-05-19T14:14:02.176Z,10
2019-05-19T14:15:04.293Z,10
2019-05-19T14:16:01.607Z,10
2019-05-19T14:17:01.873Z,11
2019-05-19T14:18:02.014Z,11
2019-05-19T14:19:02.224Z,11
2019-05-19T14:20:01.528Z,11
2019-05-19T14:21:01.680Z,11
2019-05-19T14:22:01.857Z,10
2019-05-19T14:23:02.111Z,11
2019-05-19T14:24:02.250Z,11
2019-05-19T14:25:01.557Z,11
2019-05-19T14:26:01.757Z,11
2019-05-19T14:27:01.908Z,11
2019-05-19T14:28:02.006Z,9
2019-05-19T14:29:02.343Z,11
2019-05-19T14:30:01.534Z,11
2019-05-19T14:31:01.717Z,11